sensor_id;sensor_type;location;lat;lon;timestamp;P1;durP1;ratioP1;P2;durP2;ratioP2
82292;SDS011;71892;14.836;105.234;2024-01-11T00:01:39;25.80;;;13.07;;
82292;SDS011;71892;14.836;105.234;2024-01-11T00:04:05;26.42;;;13.95;;
82292;SDS011;71892;14.836;105.234;2024-01-11T00:06:31;30.42;;;14.65;;
82292;SDS011;71892;14.836;105.234;2024-01-11T00:08:57;25.98;;;15.45;;
82292;SDS011;71892;14.836;105.234;2024-01-11T00:11:24;29.15;;;14.00;;
82292;SDS011;71892;14.836;105.234;2024-01-11T00:13:50;44.97;;;16.83;;
82292;SDS011;71892;14.836;105.234;2024-01-11T00:16:16;43.65;;;16.13;;
82292;SDS011;71892;14.836;105.234;2024-01-11T00:18:42;44.92;;;15.15;;
82292;SDS011;71892;14.836;105.234;2024-01-11T00:21:10;37.15;;;14.75;;
82292;SDS011;71892;14.836;105.234;2024-01-11T00:23:37;31.95;;;14.88;;
82292;SDS011;71892;14.836;105.234;2024-01-11T00:26:03;24.70;;;13.65;;
82292;SDS011;71892;14.836;105.234;2024-01-11T00:28:29;30.88;;;11.63;;
82292;SDS011;71892;14.836;105.234;2024-01-11T00:30:56;24.15;;;11.75;;
82292;SDS011;71892;14.836;105.234;2024-01-11T00:33:22;24.63;;;10.45;;
82292;SDS011;71892;14.836;105.234;2024-01-11T00:35:48;22.25;;;10.82;;
82292;SDS011;71892;14.836;105.234;2024-01-11T00:38:15;18.08;;;9.30;;
82292;SDS011;71892;14.836;105.234;2024-01-11T00:40:41;18.25;;;10.35;;
82292;SDS011;71892;14.836;105.234;2024-01-11T00:43:07;21.60;;;9.88;;
82292;SDS011;71892;14.836;105.234;2024-01-11T00:45:34;32.60;;;10.15;;
82292;SDS011;71892;14.836;105.234;2024-01-11T00:48:00;18.38;;;8.73;;
82292;SDS011;71892;14.836;105.234;2024-01-11T00:50:27;19.50;;;8.27;;
82292;SDS011;71892;14.836;105.234;2024-01-11T00:52:54;14.13;;;7.57;;
82292;SDS011;71892;14.836;105.234;2024-01-11T00:55:20;16.10;;;8.45;;
82292;SDS011;71892;14.836;105.234;2024-01-11T00:57:47;15.85;;;8.20;;
82292;SDS011;71892;14.836;105.234;2024-01-11T01:00:13;16.92;;;8.40;;
82292;SDS011;71892;14.836;105.234;2024-01-11T01:02:40;19.77;;;8.35;;
82292;SDS011;71892;14.836;105.234;2024-01-11T01:05:06;21.40;;;8.38;;
82292;SDS011;71892;14.836;105.234;2024-01-11T01:07:33;20.55;;;8.98;;
82292;SDS011;71892;14.836;105.234;2024-01-11T01:09:59;14.55;;;8.43;;
82292;SDS011;71892;14.836;105.234;2024-01-11T01:12:25;17.95;;;8.80;;
82292;SDS011;71892;14.836;105.234;2024-01-11T01:14:52;20.80;;;9.05;;
82292;SDS011;71892;14.836;105.234;2024-01-11T01:17:18;24.60;;;8.77;;
82292;SDS011;71892;14.836;105.234;2024-01-11T01:19:45;18.00;;;8.98;;
82292;SDS011;71892;14.836;105.234;2024-01-11T01:22:11;19.20;;;9.43;;
82292;SDS011;71892;14.836;105.234;2024-01-11T01:24:37;25.25;;;9.18;;
82292;SDS011;71892;14.836;105.234;2024-01-11T01:27:03;17.35;;;8.20;;
82292;SDS011;71892;14.836;105.234;2024-01-11T01:29:29;14.60;;;7.82;;
82292;SDS011;71892;14.836;105.234;2024-01-11T01:31:56;11.63;;;7.50;;
82292;SDS011;71892;14.836;105.234;2024-01-11T01:34:22;15.18;;;7.63;;
82292;SDS011;71892;14.836;105.234;2024-01-11T01:36:48;11.75;;;6.57;;
82292;SDS011;71892;14.836;105.234;2024-01-11T01:39:14;11.90;;;6.50;;
82292;SDS011;71892;14.836;105.234;2024-01-11T01:41:41;13.45;;;6.60;;
82292;SDS011;71892;14.836;105.234;2024-01-11T01:44:07;15.35;;;6.78;;
82292;SDS011;71892;14.836;105.234;2024-01-11T01:46:34;18.10;;;6.70;;
82292;SDS011;71892;14.836;105.234;2024-01-11T01:49:00;16.23;;;5.93;;
82292;SDS011;71892;14.836;105.234;2024-01-11T01:51:26;26.10;;;6.65;;
82292;SDS011;71892;14.836;105.234;2024-01-11T01:53:55;20.35;;;6.25;;
82292;SDS011;71892;14.836;105.234;2024-01-11T01:56:23;13.45;;;5.93;;
82292;SDS011;71892;14.836;105.234;2024-01-11T01:58:50;11.68;;;5.50;;
82292;SDS011;71892;14.836;105.234;2024-01-11T02:01:19;13.57;;;5.70;;
82292;SDS011;71892;14.836;105.234;2024-01-11T02:03:46;13.30;;;5.50;;
82292;SDS011;71892;14.836;105.234;2024-01-11T02:06:16;29.58;;;6.43;;
82292;SDS011;71892;14.836;105.234;2024-01-11T02:08:47;11.00;;;4.78;;
82292;SDS011;71892;14.836;105.234;2024-01-11T02:11:18;13.32;;;5.70;;
82292;SDS011;71892;14.836;105.234;2024-01-11T02:13:46;14.30;;;5.70;;
82292;SDS011;71892;14.836;105.234;2024-01-11T02:16:13;11.20;;;5.28;;
82292;SDS011;71892;14.836;105.234;2024-01-11T02:18:40;13.70;;;5.80;;
82292;SDS011;71892;14.836;105.234;2024-01-11T02:21:06;9.30;;;5.68;;
82292;SDS011;71892;14.836;105.234;2024-01-11T02:23:34;15.73;;;6.38;;
82292;SDS011;71892;14.836;105.234;2024-01-11T02:26:07;13.57;;;5.57;;
82292;SDS011;71892;14.836;105.234;2024-01-11T02:28:33;9.65;;;5.00;;
82292;SDS011;71892;14.836;105.234;2024-01-11T02:31:00;12.77;;;4.43;;
82292;SDS011;71892;14.836;105.234;2024-01-11T02:33:26;16.80;;;6.13;;
82292;SDS011;71892;14.836;105.234;2024-01-11T02:35:52;12.48;;;5.32;;
82292;SDS011;71892;14.836;105.234;2024-01-11T02:38:19;9.45;;;4.88;;
82292;SDS011;71892;14.836;105.234;2024-01-11T02:40:46;13.05;;;5.05;;
82292;SDS011;71892;14.836;105.234;2024-01-11T02:43:15;8.98;;;4.85;;
82292;SDS011;71892;14.836;105.234;2024-01-11T02:45:42;14.32;;;5.13;;
82292;SDS011;71892;14.836;105.234;2024-01-11T02:48:08;19.90;;;5.13;;
82292;SDS011;71892;14.836;105.234;2024-01-11T02:50:34;15.32;;;5.22;;
82292;SDS011;71892;14.836;105.234;2024-01-11T02:53:00;13.25;;;5.50;;
82292;SDS011;71892;14.836;105.234;2024-01-11T02:55:27;12.70;;;5.18;;
82292;SDS011;71892;14.836;105.234;2024-01-11T02:57:53;8.75;;;4.93;;
82292;SDS011;71892;14.836;105.234;2024-01-11T03:00:19;7.38;;;4.05;;
82292;SDS011;71892;14.836;105.234;2024-01-11T03:02:46;9.75;;;5.05;;
82292;SDS011;71892;14.836;105.234;2024-01-11T03:05:12;11.38;;;4.70;;
82292;SDS011;71892;14.836;105.234;2024-01-11T03:07:38;10.52;;;5.10;;
82292;SDS011;71892;14.836;105.234;2024-01-11T03:10:05;12.18;;;4.93;;
82292;SDS011;71892;14.836;105.234;2024-01-11T03:12:31;13.20;;;4.68;;
82292;SDS011;71892;14.836;105.234;2024-01-11T03:14:57;13.63;;;4.80;;
82292;SDS011;71892;14.836;105.234;2024-01-11T03:17:24;13.32;;;5.13;;
82292;SDS011;71892;14.836;105.234;2024-01-11T03:19:50;14.45;;;5.93;;
82292;SDS011;71892;14.836;105.234;2024-01-11T03:22:16;14.20;;;6.40;;
82292;SDS011;71892;14.836;105.234;2024-01-11T03:24:42;14.90;;;8.23;;
82292;SDS011;71892;14.836;105.234;2024-01-11T03:27:09;16.45;;;8.40;;
82292;SDS011;71892;14.836;105.234;2024-01-11T03:29:35;16.75;;;8.07;;
82292;SDS011;71892;14.836;105.234;2024-01-11T03:32:01;17.25;;;9.38;;
82292;SDS011;71892;14.836;105.234;2024-01-11T03:34:28;12.18;;;5.60;;
82292;SDS011;71892;14.836;105.234;2024-01-11T03:36:54;11.95;;;5.03;;
82292;SDS011;71892;14.836;105.234;2024-01-11T03:39:21;11.38;;;5.00;;
82292;SDS011;71892;14.836;105.234;2024-01-11T03:41:47;10.23;;;4.70;;
82292;SDS011;71892;14.836;105.234;2024-01-11T03:44:14;14.00;;;5.80;;
82292;SDS011;71892;14.836;105.234;2024-01-11T03:46:40;17.17;;;5.03;;
82292;SDS011;71892;14.836;105.234;2024-01-11T03:49:06;9.52;;;4.38;;
82292;SDS011;71892;14.836;105.234;2024-01-11T03:51:33;10.35;;;4.82;;
82292;SDS011;71892;14.836;105.234;2024-01-11T03:54:00;9.98;;;4.63;;
82292;SDS011;71892;14.836;105.234;2024-01-11T03:56:26;15.85;;;6.00;;
82292;SDS011;71892;14.836;105.234;2024-01-11T03:58:52;10.00;;;4.82;;
82292;SDS011;71892;14.836;105.234;2024-01-11T04:01:19;9.32;;;5.38;;
82292;SDS011;71892;14.836;105.234;2024-01-11T04:03:45;14.50;;;4.93;;
82292;SDS011;71892;14.836;105.234;2024-01-11T04:06:19;12.68;;;4.45;;
82292;SDS011;71892;14.836;105.234;2024-01-11T04:08:46;16.63;;;6.38;;
82292;SDS011;71892;14.836;105.234;2024-01-11T04:11:13;13.10;;;5.97;;
82292;SDS011;71892;14.836;105.234;2024-01-11T04:13:40;13.15;;;5.20;;
82292;SDS011;71892;14.836;105.234;2024-01-11T04:16:06;13.60;;;5.30;;
82292;SDS011;71892;14.836;105.234;2024-01-11T04:18:32;12.23;;;4.78;;
82292;SDS011;71892;14.836;105.234;2024-01-11T04:20:59;12.45;;;4.97;;
82292;SDS011;71892;14.836;105.234;2024-01-11T04:23:25;8.13;;;4.93;;
82292;SDS011;71892;14.836;105.234;2024-01-11T04:25:52;18.38;;;9.05;;
82292;SDS011;71892;14.836;105.234;2024-01-11T04:28:18;21.88;;;10.90;;
82292;SDS011;71892;14.836;105.234;2024-01-11T04:30:44;17.48;;;8.77;;
82292;SDS011;71892;14.836;105.234;2024-01-11T04:33:11;11.80;;;6.13;;
82292;SDS011;71892;14.836;105.234;2024-01-11T04:35:37;15.77;;;5.45;;
82292;SDS011;71892;14.836;105.234;2024-01-11T04:38:03;13.43;;;4.97;;
82292;SDS011;71892;14.836;105.234;2024-01-11T04:40:29;15.43;;;5.32;;
82292;SDS011;71892;14.836;105.234;2024-01-11T04:42:56;10.77;;;4.55;;
82292;SDS011;71892;14.836;105.234;2024-01-11T04:45:22;11.55;;;5.07;;
82292;SDS011;71892;14.836;105.234;2024-01-11T04:47:50;10.63;;;4.40;;
82292;SDS011;71892;14.836;105.234;2024-01-11T04:50:17;7.43;;;4.03;;
82292;SDS011;71892;14.836;105.234;2024-01-11T04:52:43;7.72;;;4.32;;
82292;SDS011;71892;14.836;105.234;2024-01-11T04:55:09;10.13;;;4.18;;
82292;SDS011;71892;14.836;105.234;2024-01-11T04:57:36;9.90;;;4.93;;
82292;SDS011;71892;14.836;105.234;2024-01-11T05:00:02;9.88;;;4.32;;
82292;SDS011;71892;14.836;105.234;2024-01-11T05:02:28;9.52;;;4.15;;
82292;SDS011;71892;14.836;105.234;2024-01-11T05:04:55;10.13;;;4.47;;
82292;SDS011;71892;14.836;105.234;2024-01-11T05:07:21;9.00;;;4.13;;
82292;SDS011;71892;14.836;105.234;2024-01-11T05:09:47;10.13;;;4.53;;
82292;SDS011;71892;14.836;105.234;2024-01-11T05:12:13;8.65;;;4.82;;
82292;SDS011;71892;14.836;105.234;2024-01-11T05:14:40;10.23;;;4.53;;
82292;SDS011;71892;14.836;105.234;2024-01-11T05:17:07;9.10;;;4.72;;
82292;SDS011;71892;14.836;105.234;2024-01-11T05:19:33;11.13;;;4.30;;
82292;SDS011;71892;14.836;105.234;2024-01-11T05:21:59;9.13;;;4.47;;
82292;SDS011;71892;14.836;105.234;2024-01-11T05:24:25;10.43;;;4.05;;
82292;SDS011;71892;14.836;105.234;2024-01-11T05:26:52;11.55;;;4.82;;
82292;SDS011;71892;14.836;105.234;2024-01-11T05:29:18;11.82;;;4.85;;
82292;SDS011;71892;14.836;105.234;2024-01-11T05:31:45;10.13;;;4.88;;
82292;SDS011;71892;14.836;105.234;2024-01-11T05:34:11;10.43;;;4.63;;
82292;SDS011;71892;14.836;105.234;2024-01-11T05:36:38;12.50;;;4.35;;
82292;SDS011;71892;14.836;105.234;2024-01-11T05:39:04;11.75;;;5.97;;
82292;SDS011;71892;14.836;105.234;2024-01-11T05:41:31;9.43;;;4.75;;
82292;SDS011;71892;14.836;105.234;2024-01-11T05:43:57;8.38;;;4.38;;
82292;SDS011;71892;14.836;105.234;2024-01-11T05:46:24;10.15;;;4.60;;
82292;SDS011;71892;14.836;105.234;2024-01-11T05:48:50;7.68;;;4.53;;
82292;SDS011;71892;14.836;105.234;2024-01-11T05:51:16;8.15;;;4.68;;
82292;SDS011;71892;14.836;105.234;2024-01-11T05:53:43;10.57;;;4.88;;
82292;SDS011;71892;14.836;105.234;2024-01-11T05:56:09;8.93;;;4.70;;
82292;SDS011;71892;14.836;105.234;2024-01-11T05:58:36;9.18;;;5.00;;
82292;SDS011;71892;14.836;105.234;2024-01-11T06:01:03;12.55;;;5.45;;
82292;SDS011;71892;14.836;105.234;2024-01-11T06:03:30;7.22;;;5.03;;
82292;SDS011;71892;14.836;105.234;2024-01-11T06:05:59;8.55;;;5.55;;
82292;SDS011;71892;14.836;105.234;2024-01-11T06:08:28;11.25;;;4.55;;
82292;SDS011;71892;14.836;105.234;2024-01-11T06:10:55;9.80;;;4.00;;
82292;SDS011;71892;14.836;105.234;2024-01-11T06:13:22;11.68;;;4.63;;
82292;SDS011;71892;14.836;105.234;2024-01-11T06:15:49;8.98;;;4.57;;
82292;SDS011;71892;14.836;105.234;2024-01-11T06:18:15;11.02;;;4.95;;
82292;SDS011;71892;14.836;105.234;2024-01-11T06:20:42;12.20;;;4.85;;
82292;SDS011;71892;14.836;105.234;2024-01-11T06:23:08;12.52;;;4.47;;
82292;SDS011;71892;14.836;105.234;2024-01-11T06:25:34;10.85;;;5.28;;
82292;SDS011;71892;14.836;105.234;2024-01-11T06:28:02;9.45;;;4.50;;
82292;SDS011;71892;14.836;105.234;2024-01-11T06:30:29;10.00;;;4.65;;
82292;SDS011;71892;14.836;105.234;2024-01-11T06:32:55;8.38;;;4.25;;
82292;SDS011;71892;14.836;105.234;2024-01-11T06:35:21;9.25;;;4.38;;
82292;SDS011;71892;14.836;105.234;2024-01-11T06:37:48;7.47;;;4.55;;
82292;SDS011;71892;14.836;105.234;2024-01-11T06:40:14;10.23;;;4.72;;
82292;SDS011;71892;14.836;105.234;2024-01-11T06:42:41;9.18;;;4.95;;
82292;SDS011;71892;14.836;105.234;2024-01-11T06:45:07;8.05;;;4.68;;
82292;SDS011;71892;14.836;105.234;2024-01-11T06:47:34;13.35;;;5.28;;
82292;SDS011;71892;14.836;105.234;2024-01-11T06:50:00;18.52;;;5.30;;
82292;SDS011;71892;14.836;105.234;2024-01-11T06:52:28;10.40;;;4.72;;
82292;SDS011;71892;14.836;105.234;2024-01-11T06:54:54;7.03;;;4.60;;
82292;SDS011;71892;14.836;105.234;2024-01-11T06:57:20;14.73;;;4.90;;
82292;SDS011;71892;14.836;105.234;2024-01-11T06:59:47;8.80;;;4.90;;
82292;SDS011;71892;14.836;105.234;2024-01-11T07:02:14;13.40;;;4.75;;
82292;SDS011;71892;14.836;105.234;2024-01-11T07:04:43;11.63;;;5.80;;
82292;SDS011;71892;14.836;105.234;2024-01-11T07:07:10;12.95;;;5.22;;
82292;SDS011;71892;14.836;105.234;2024-01-11T07:09:36;13.35;;;4.53;;
82292;SDS011;71892;14.836;105.234;2024-01-11T07:12:03;12.02;;;5.30;;
82292;SDS011;71892;14.836;105.234;2024-01-11T07:14:30;10.27;;;4.90;;
82292;SDS011;71892;14.836;105.234;2024-01-11T07:16:57;14.68;;;4.50;;
82292;SDS011;71892;14.836;105.234;2024-01-11T07:19:23;12.30;;;4.90;;
82292;SDS011;71892;14.836;105.234;2024-01-11T07:21:49;7.60;;;4.72;;
82292;SDS011;71892;14.836;105.234;2024-01-11T07:24:16;8.65;;;4.35;;
82292;SDS011;71892;14.836;105.234;2024-01-11T07:26:44;8.98;;;4.80;;
82292;SDS011;71892;14.836;105.234;2024-01-11T07:29:10;8.25;;;4.57;;
82292;SDS011;71892;14.836;105.234;2024-01-11T07:31:36;9.18;;;4.90;;
82292;SDS011;71892;14.836;105.234;2024-01-11T07:34:02;8.02;;;4.95;;
82292;SDS011;71892;14.836;105.234;2024-01-11T07:36:30;13.52;;;4.57;;
82292;SDS011;71892;14.836;105.234;2024-01-11T07:38:56;12.02;;;5.88;;
82292;SDS011;71892;14.836;105.234;2024-01-11T07:41:22;7.10;;;4.03;;
82292;SDS011;71892;14.836;105.234;2024-01-11T07:43:48;7.57;;;4.32;;
82292;SDS011;71892;14.836;105.234;2024-01-11T07:46:15;12.93;;;5.10;;
82292;SDS011;71892;14.836;105.234;2024-01-11T07:48:41;12.88;;;4.72;;
82292;SDS011;71892;14.836;105.234;2024-01-11T07:51:08;7.60;;;4.10;;
82292;SDS011;71892;14.836;105.234;2024-01-11T07:53:34;10.32;;;4.35;;
82292;SDS011;71892;14.836;105.234;2024-01-11T07:56:00;10.02;;;4.57;;
82292;SDS011;71892;14.836;105.234;2024-01-11T07:58:26;9.07;;;4.68;;
82292;SDS011;71892;14.836;105.234;2024-01-11T08:00:53;13.38;;;5.20;;
82292;SDS011;71892;14.836;105.234;2024-01-11T08:03:19;7.93;;;4.57;;
82292;SDS011;71892;14.836;105.234;2024-01-11T08:05:45;10.20;;;4.95;;
82292;SDS011;71892;14.836;105.234;2024-01-11T08:08:11;11.30;;;5.40;;
82292;SDS011;71892;14.836;105.234;2024-01-11T08:10:38;9.32;;;4.60;;
82292;SDS011;71892;14.836;105.234;2024-01-11T08:13:04;10.88;;;5.03;;
82292;SDS011;71892;14.836;105.234;2024-01-11T08:15:30;10.85;;;4.97;;
82292;SDS011;71892;14.836;105.234;2024-01-11T08:17:56;13.48;;;5.18;;
82292;SDS011;71892;14.836;105.234;2024-01-11T08:20:23;8.75;;;4.95;;
82292;SDS011;71892;14.836;105.234;2024-01-11T08:22:49;10.18;;;4.53;;
82292;SDS011;71892;14.836;105.234;2024-01-11T08:25:16;11.07;;;4.97;;
82292;SDS011;71892;14.836;105.234;2024-01-11T08:27:43;8.57;;;5.05;;
82292;SDS011;71892;14.836;105.234;2024-01-11T08:30:09;10.63;;;5.00;;
82292;SDS011;71892;14.836;105.234;2024-01-11T08:32:37;10.73;;;5.10;;
82292;SDS011;71892;14.836;105.234;2024-01-11T08:35:11;11.32;;;5.05;;
82292;SDS011;71892;14.836;105.234;2024-01-11T08:37:37;8.60;;;4.88;;
82292;SDS011;71892;14.836;105.234;2024-01-11T08:40:04;13.77;;;4.95;;
82292;SDS011;71892;14.836;105.234;2024-01-11T08:42:31;12.90;;;5.25;;
82292;SDS011;71892;14.836;105.234;2024-01-11T08:44:58;15.63;;;5.45;;
82292;SDS011;71892;14.836;105.234;2024-01-11T08:47:29;9.48;;;5.25;;
82292;SDS011;71892;14.836;105.234;2024-01-11T08:49:55;16.83;;;5.20;;
82292;SDS011;71892;14.836;105.234;2024-01-11T08:52:22;7.70;;;4.97;;
82292;SDS011;71892;14.836;105.234;2024-01-11T08:54:49;12.30;;;5.35;;
82292;SDS011;71892;14.836;105.234;2024-01-11T08:57:15;9.38;;;5.45;;
82292;SDS011;71892;14.836;105.234;2024-01-11T08:59:42;11.00;;;5.20;;
82292;SDS011;71892;14.836;105.234;2024-01-11T09:02:17;15.65;;;5.47;;
82292;SDS011;71892;14.836;105.234;2024-01-11T09:04:44;10.80;;;4.93;;
82292;SDS011;71892;14.836;105.234;2024-01-11T09:07:12;11.90;;;5.10;;
82292;SDS011;71892;14.836;105.234;2024-01-11T09:09:39;11.75;;;5.07;;
82292;SDS011;71892;14.836;105.234;2024-01-11T09:12:05;14.52;;;5.43;;
82292;SDS011;71892;14.836;105.234;2024-01-11T09:14:32;10.25;;;5.10;;
82292;SDS011;71892;14.836;105.234;2024-01-11T09:16:58;9.40;;;5.05;;
82292;SDS011;71892;14.836;105.234;2024-01-11T09:19:25;14.82;;;6.53;;
82292;SDS011;71892;14.836;105.234;2024-01-11T09:21:51;6.70;;;4.85;;
82292;SDS011;71892;14.836;105.234;2024-01-11T09:24:17;10.45;;;5.65;;
82292;SDS011;71892;14.836;105.234;2024-01-11T09:26:44;11.75;;;5.57;;
82292;SDS011;71892;14.836;105.234;2024-01-11T09:29:10;14.85;;;5.85;;
82292;SDS011;71892;14.836;105.234;2024-01-11T09:31:36;8.48;;;5.30;;
82292;SDS011;71892;14.836;105.234;2024-01-11T09:34:02;10.82;;;5.68;;
82292;SDS011;71892;14.836;105.234;2024-01-11T09:36:29;8.70;;;5.35;;
82292;SDS011;71892;14.836;105.234;2024-01-11T09:38:55;12.15;;;5.28;;
82292;SDS011;71892;14.836;105.234;2024-01-11T09:41:21;12.70;;;5.65;;
82292;SDS011;71892;14.836;105.234;2024-01-11T09:43:48;10.15;;;5.00;;
82292;SDS011;71892;14.836;105.234;2024-01-11T09:46:18;16.23;;;6.88;;
82292;SDS011;71892;14.836;105.234;2024-01-11T09:48:46;12.32;;;6.07;;
82292;SDS011;71892;14.836;105.234;2024-01-11T09:51:14;13.50;;;6.00;;
82292;SDS011;71892;14.836;105.234;2024-01-11T09:53:40;11.95;;;6.30;;
82292;SDS011;71892;14.836;105.234;2024-01-11T09:56:08;11.93;;;5.47;;
82292;SDS011;71892;14.836;105.234;2024-01-11T09:58:36;10.35;;;6.10;;
82292;SDS011;71892;14.836;105.234;2024-01-11T10:01:06;20.25;;;6.75;;
82292;SDS011;71892;14.836;105.234;2024-01-11T10:03:43;17.75;;;6.20;;
82292;SDS011;71892;14.836;105.234;2024-01-11T10:06:11;14.90;;;6.53;;
82292;SDS011;71892;14.836;105.234;2024-01-11T10:08:41;17.38;;;6.70;;
82292;SDS011;71892;14.836;105.234;2024-01-11T10:11:07;12.63;;;5.82;;
82292;SDS011;71892;14.836;105.234;2024-01-11T10:13:33;11.63;;;7.18;;
82292;SDS011;71892;14.836;105.234;2024-01-11T10:16:08;10.85;;;6.22;;
82292;SDS011;71892;14.836;105.234;2024-01-11T10:18:35;16.02;;;7.25;;
82292;SDS011;71892;14.836;105.234;2024-01-11T10:21:02;12.18;;;6.97;;
82292;SDS011;71892;14.836;105.234;2024-01-11T10:23:29;13.40;;;7.88;;
82292;SDS011;71892;14.836;105.234;2024-01-11T10:25:59;19.25;;;8.18;;
82292;SDS011;71892;14.836;105.234;2024-01-11T10:28:26;21.05;;;8.85;;
82292;SDS011;71892;14.836;105.234;2024-01-11T10:30:53;17.15;;;9.52;;
82292;SDS011;71892;14.836;105.234;2024-01-11T10:33:31;24.95;;;9.93;;
82292;SDS011;71892;14.836;105.234;2024-01-11T10:36:07;29.05;;;9.98;;
82292;SDS011;71892;14.836;105.234;2024-01-11T10:38:35;22.92;;;7.97;;
82292;SDS011;71892;14.836;105.234;2024-01-11T10:41:05;23.35;;;9.35;;
82292;SDS011;71892;14.836;105.234;2024-01-11T10:43:32;23.25;;;9.40;;
82292;SDS011;71892;14.836;105.234;2024-01-11T10:46:03;33.65;;;11.68;;
82292;SDS011;71892;14.836;105.234;2024-01-11T10:50:59;24.20;;;10.82;;
82292;SDS011;71892;14.836;105.234;2024-01-11T10:56:13;21.08;;;10.82;;
82292;SDS011;71892;14.836;105.234;2024-01-11T10:58:43;25.13;;;11.98;;
82292;SDS011;71892;14.836;105.234;2024-01-11T11:01:10;19.70;;;9.98;;
82292;SDS011;71892;14.836;105.234;2024-01-11T11:03:38;19.30;;;9.63;;
82292;SDS011;71892;14.836;105.234;2024-01-11T11:06:08;23.83;;;9.98;;
82292;SDS011;71892;14.836;105.234;2024-01-11T11:08:36;20.83;;;10.98;;
82292;SDS011;71892;14.836;105.234;2024-01-11T11:11:03;19.88;;;9.93;;
82292;SDS011;71892;14.836;105.234;2024-01-11T11:13:34;19.83;;;8.98;;
82292;SDS011;71892;14.836;105.234;2024-01-11T11:16:00;24.98;;;9.88;;
82292;SDS011;71892;14.836;105.234;2024-01-11T11:18:29;20.50;;;9.13;;
82292;SDS011;71892;14.836;105.234;2024-01-11T11:20:57;18.48;;;9.35;;
82292;SDS011;71892;14.836;105.234;2024-01-11T11:23:23;19.83;;;8.95;;
82292;SDS011;71892;14.836;105.234;2024-01-11T11:25:49;21.58;;;9.73;;
82292;SDS011;71892;14.836;105.234;2024-01-11T11:28:19;24.17;;;10.15;;
82292;SDS011;71892;14.836;105.234;2024-01-11T11:30:47;24.90;;;9.13;;
82292;SDS011;71892;14.836;105.234;2024-01-11T11:33:18;27.67;;;11.50;;
82292;SDS011;71892;14.836;105.234;2024-01-11T11:35:47;27.25;;;10.93;;
82292;SDS011;71892;14.836;105.234;2024-01-11T11:38:21;28.60;;;10.38;;
82292;SDS011;71892;14.836;105.234;2024-01-11T11:40:50;24.13;;;10.18;;
82292;SDS011;71892;14.836;105.234;2024-01-11T11:43:18;22.98;;;9.75;;
82292;SDS011;71892;14.836;105.234;2024-01-11T11:45:47;26.30;;;10.13;;
82292;SDS011;71892;14.836;105.234;2024-01-11T11:53:34;35.33;;;11.45;;
82292;SDS011;71892;14.836;105.234;2024-01-11T11:56:01;30.25;;;12.73;;
82292;SDS011;71892;14.836;105.234;2024-01-11T11:58:28;50.17;;;22.95;;
82292;SDS011;71892;14.836;105.234;2024-01-11T12:00:56;35.28;;;17.70;;
82292;SDS011;71892;14.836;105.234;2024-01-11T12:03:25;42.33;;;20.00;;
82292;SDS011;71892;14.836;105.234;2024-01-11T12:06:00;42.00;;;20.83;;
82292;SDS011;71892;14.836;105.234;2024-01-11T12:08:26;34.70;;;19.45;;
82292;SDS011;71892;14.836;105.234;2024-01-11T12:10:52;46.67;;;17.77;;
82292;SDS011;71892;14.836;105.234;2024-01-11T12:13:19;29.38;;;16.23;;
82292;SDS011;71892;14.836;105.234;2024-01-11T12:15:46;31.65;;;16.48;;
82292;SDS011;71892;14.836;105.234;2024-01-11T12:18:13;38.70;;;15.57;;
82292;SDS011;71892;14.836;105.234;2024-01-11T12:20:39;32.13;;;14.23;;
82292;SDS011;71892;14.836;105.234;2024-01-11T12:23:06;26.88;;;14.43;;
82292;SDS011;71892;14.836;105.234;2024-01-11T12:25:32;29.33;;;13.98;;
82292;SDS011;71892;14.836;105.234;2024-01-11T12:27:58;24.17;;;13.57;;
82292;SDS011;71892;14.836;105.234;2024-01-11T12:30:25;25.42;;;13.57;;
82292;SDS011;71892;14.836;105.234;2024-01-11T12:32:52;31.65;;;16.08;;
82292;SDS011;71892;14.836;105.234;2024-01-11T12:35:20;30.45;;;15.73;;
82292;SDS011;71892;14.836;105.234;2024-01-11T12:38:20;31.85;;;13.07;;
82292;SDS011;71892;14.836;105.234;2024-01-11T12:43:07;30.83;;;10.18;;
82292;SDS011;71892;14.836;105.234;2024-01-11T12:45:36;16.13;;;8.48;;
82292;SDS011;71892;14.836;105.234;2024-01-11T12:48:06;18.88;;;8.80;;
82292;SDS011;71892;14.836;105.234;2024-01-11T12:50:34;14.98;;;8.82;;
82292;SDS011;71892;14.836;105.234;2024-01-11T12:55:34;20.13;;;8.07;;
82292;SDS011;71892;14.836;105.234;2024-01-11T12:58:04;19.58;;;9.13;;
82292;SDS011;71892;14.836;105.234;2024-01-11T13:00:31;21.73;;;9.65;;
82292;SDS011;71892;14.836;105.234;2024-01-11T13:02:58;19.48;;;8.50;;
82292;SDS011;71892;14.836;105.234;2024-01-11T13:05:25;19.83;;;9.38;;
82292;SDS011;71892;14.836;105.234;2024-01-11T13:07:51;16.52;;;8.52;;
82292;SDS011;71892;14.836;105.234;2024-01-11T13:10:18;18.23;;;8.77;;
82292;SDS011;71892;14.836;105.234;2024-01-11T13:12:44;12.82;;;8.85;;
82292;SDS011;71892;14.836;105.234;2024-01-11T13:15:11;18.75;;;8.63;;
82292;SDS011;71892;14.836;105.234;2024-01-11T13:17:37;18.15;;;8.52;;
82292;SDS011;71892;14.836;105.234;2024-01-11T13:20:04;18.80;;;9.30;;
82292;SDS011;71892;14.836;105.234;2024-01-11T13:22:32;23.20;;;9.70;;
82292;SDS011;71892;14.836;105.234;2024-01-11T13:24:58;20.63;;;10.13;;
82292;SDS011;71892;14.836;105.234;2024-01-11T13:27:25;22.00;;;10.20;;
82292;SDS011;71892;14.836;105.234;2024-01-11T13:29:52;29.75;;;12.93;;
82292;SDS011;71892;14.836;105.234;2024-01-11T13:32:18;23.70;;;12.48;;
82292;SDS011;71892;14.836;105.234;2024-01-11T13:37:13;25.15;;;10.85;;
82292;SDS011;71892;14.836;105.234;2024-01-11T13:39:39;20.85;;;12.05;;
82292;SDS011;71892;14.836;105.234;2024-01-11T13:42:06;19.40;;;11.02;;
82292;SDS011;71892;14.836;105.234;2024-01-11T13:44:34;22.80;;;11.98;;
82292;SDS011;71892;14.836;105.234;2024-01-11T13:47:01;25.70;;;11.90;;
82292;SDS011;71892;14.836;105.234;2024-01-11T13:49:28;18.95;;;10.73;;
82292;SDS011;71892;14.836;105.234;2024-01-11T13:51:54;21.13;;;10.98;;
82292;SDS011;71892;14.836;105.234;2024-01-11T13:54:21;18.02;;;10.55;;
82292;SDS011;71892;14.836;105.234;2024-01-11T13:56:47;20.77;;;10.27;;
82292;SDS011;71892;14.836;105.234;2024-01-11T13:59:14;17.27;;;11.27;;
82292;SDS011;71892;14.836;105.234;2024-01-11T14:01:40;21.30;;;10.45;;
82292;SDS011;71892;14.836;105.234;2024-01-11T14:04:06;18.30;;;10.40;;
82292;SDS011;71892;14.836;105.234;2024-01-11T14:06:33;26.10;;;9.95;;
82292;SDS011;71892;14.836;105.234;2024-01-11T14:08:59;18.40;;;10.73;;
82292;SDS011;71892;14.836;105.234;2024-01-11T14:11:25;22.00;;;11.38;;
82292;SDS011;71892;14.836;105.234;2024-01-11T14:13:52;25.00;;;10.60;;
82292;SDS011;71892;14.836;105.234;2024-01-11T14:16:18;39.63;;;12.10;;
82292;SDS011;71892;14.836;105.234;2024-01-11T14:18:44;23.30;;;12.38;;
82292;SDS011;71892;14.836;105.234;2024-01-11T14:21:10;20.88;;;11.30;;
82292;SDS011;71892;14.836;105.234;2024-01-11T14:23:37;21.63;;;11.88;;
82292;SDS011;71892;14.836;105.234;2024-01-11T14:26:03;22.13;;;12.90;;